Time;durP1;ratioP1;P1;durP2;ratioP2;P2;SDS_P1;SDS_P2;PMS_P1;PMS_P2;Temp;Humidity;BMP_temperature;BMP_pressure;BME280_temperature;BME280_humidity;BME280_pressure;Samples;Min_cycle;Max_cycle;Signal;HPM_P1;HPM_P2
2021/07/29 00:01:05;;;;;;;;;;;17.70;99.90;;;;;;1929359;72;20200;-70
2021/07/29 00:03:32;;;;;;;;;;;17.70;99.90;;;;;;1945701;72;20232;-70
2021/07/29 00:05:59;;;;;;;;;;;17.60;99.90;;;;;;1930256;73;20141;-70
2021/07/29 00:08:26;;;;;;;;;;;17.70;99.90;;;;;;1942851;72;20178;-70
2021/07/29 00:10:52;;;;;;;;;;;17.80;99.90;;;;;;1943836;73;20137;-71
2021/07/29 00:13:20;;;;;;;;;;;17.80;99.90;;;;;;1937004;73;20214;-71
2021/07/29 00:15:47;;;;;;;;;;;17.80;99.90;;;;;;1937095;73;20216;-70
2021/07/29 00:20:42;;;;;;;;;;;17.80;99.90;;;;;;1899868;73;20171;-71
2021/07/29 00:23:09;;;;;;;;;;;17.80;99.90;;;;;;1953319;73;20131;-71
2021/07/29 00:25:36;;;;;;;;;;;17.80;99.90;;;;;;1946256;73;20219;-70
2021/07/29 00:28:03;;;;;;;;;;;17.80;99.90;;;;;;1923583;73;20172;-71
2021/07/29 00:30:29;;;;;;;;;;;17.80;99.90;;;;;;1950470;72;20131;-70
2021/07/29 00:32:56;;;;;;;;;;;17.80;99.90;;;;;;1946070;73;20171;-70
2021/07/29 00:35:23;;;;;;;;;;;17.80;99.90;;;;;;1958226;72;20201;-70
2021/07/29 00:37:52;;;;;;;;;;;17.80;99.90;;;;;;1935941;72;20218;-70
2021/07/29 00:40:20;;;;;;;;;;;17.90;99.90;;;;;;1936933;73;20472;-71
2021/07/29 00:42:48;;;;;;;;;;;17.80;99.90;;;;;;1958373;72;20182;-70
2021/07/29 00:45:14;;;;;;;;;;;17.70;99.90;;;;;;1936090;73;20164;-70
2021/07/29 00:47:43;;;;;;;;;;;17.70;99.90;;;;;;1933316;73;20658;-70
2021/07/29 00:50:11;;;;;;;;;;;17.70;99.90;;;;;;1924558;73;20450;-70
2021/07/29 00:52:38;;;;;;;;;;;17.70;99.90;;;;;;1922002;73;20162;-70
2021/07/29 00:55:06;;;;;;;;;;;17.80;99.90;;;;;;1920230;73;20200;-70
2021/07/29 00:57:34;;;;;;;;;;;17.70;99.90;;;;;;1947140;73;20200;-70
2021/07/29 01:00:01;;;;;;;;;;;17.80;99.90;;;;;;1958924;72;20119;-72
2021/07/29 01:02:28;;;;;;;;;;;17.70;99.90;;;;;;1921943;73;20180;-70
2021/07/29 01:04:55;;;;;;;;;;;17.70;99.90;;;;;;1940822;73;20154;-70
2021/07/29 01:07:22;;;;;;;;;;;17.70;99.90;;;;;;1929840;73;20177;-70
2021/07/29 01:09:49;;;;;;;;;;;17.80;99.90;;;;;;1927298;73;20160;-70
2021/07/29 01:12:15;;;;;;;;;;;17.80;99.90;;;;;;1947299;72;20243;-70
2021/07/29 01:14:42;;;;;;;;;;;17.80;99.90;;;;;;1957508;73;20166;-70
2021/07/29 01:17:09;;;;;;;;;;;17.80;99.90;;;;;;1934491;73;20178;-71
2021/07/29 01:19:37;;;;;;;;;;;17.80;99.90;;;;;;1934195;72;20176;-71
2021/07/29 01:22:04;;;;;;;;;;;17.70;99.90;;;;;;1900401;73;20465;-71
2021/07/29 01:24:31;;;;;;;;;;;17.70;99.90;;;;;;1923433;73;20267;-70
2021/07/29 01:26:58;;;;;;;;;;;17.70;99.90;;;;;;1924545;74;20188;-70
2021/07/29 01:29:25;;;;;;;;;;;17.70;99.90;;;;;;1924650;73;20165;-71
2021/07/29 01:31:51;;;;;;;;;;;17.70;99.90;;;;;;1923662;73;20145;-72
2021/07/29 01:34:18;;;;;;;;;;;17.70;99.90;;;;;;1913886;74;20492;-72
2021/07/29 01:36:46;;;;;;;;;;;17.70;99.90;;;;;;1924725;74;20173;-71
2021/07/29 01:39:12;;;;;;;;;;;17.60;99.90;;;;;;1890158;74;20147;-71
2021/07/29 01:41:39;;;;;;;;;;;17.70;99.90;;;;;;1902677;73;20203;-71
2021/07/29 01:44:06;;;;;;;;;;;17.70;99.90;;;;;;1924333;74;20470;-71
2021/07/29 01:46:33;;;;;;;;;;;17.70;99.90;;;;;;1923598;73;20180;-72
2021/07/29 01:49:00;;;;;;;;;;;17.70;99.90;;;;;;1924452;73;20173;-72
2021/07/29 01:51:27;;;;;;;;;;;17.60;99.90;;;;;;1924785;73;20172;-71
2021/07/29 01:53:53;;;;;;;;;;;17.60;99.90;;;;;;1923372;74;20149;-71
2021/07/29 01:56:21;;;;;;;;;;;17.60;99.90;;;;;;1923269;74;20539;-72
2021/07/29 01:58:47;;;;;;;;;;;17.70;99.90;;;;;;1923481;73;20628;-71
2021/07/29 02:01:16;;;;;;;;;;;17.70;99.90;;;;;;1924286;73;20181;-71
2021/07/29 02:03:42;;;;;;;;;;;17.60;99.90;;;;;;1923597;74;20519;-71
2021/07/29 02:06:09;;;;;;;;;;;17.70;99.90;;;;;;1924074;74;20180;-71
2021/07/29 02:08:36;;;;;;;;;;;17.70;99.90;;;;;;1924572;73;20489;-71
2021/07/29 02:11:03;;;;;;;;;;;17.70;99.90;;;;;;1922598;73;20212;-70
2021/07/29 02:13:30;;;;;;;;;;;17.80;99.90;;;;;;1903077;73;20224;-71
2021/07/29 02:15:57;;;;;;;;;;;17.70;99.90;;;;;;1908844;74;20470;-71
2021/07/29 02:18:24;;;;;;;;;;;17.80;99.90;;;;;;1900527;73;20188;-71
2021/07/29 02:20:51;;;;;;;;;;;17.70;99.90;;;;;;1923861;74;20172;-71
2021/07/29 02:23:17;;;;;;;;;;;17.70;99.90;;;;;;1923985;73;20184;-71
2021/07/29 02:25:44;;;;;;;;;;;17.70;99.90;;;;;;1924507;73;20173;-70
2021/07/29 02:28:11;;;;;;;;;;;17.70;99.90;;;;;;1910810;74;20179;-71
2021/07/29 02:30:38;;;;;;;;;;;17.60;99.90;;;;;;1919104;73;20177;-70
2021/07/29 02:33:05;;;;;;;;;;;17.70;99.90;;;;;;1923201;73;20176;-71
2021/07/29 02:35:32;;;;;;;;;;;17.70;99.90;;;;;;1920318;73;20226;-71
2021/07/29 02:38:00;;;;;;;;;;;17.70;99.90;;;;;;1916553;73;20283;-71
2021/07/29 02:40:27;;;;;;;;;;;17.70;99.90;;;;;;1925307;74;20176;-71
2021/07/29 02:42:54;;;;;;;;;;;17.60;99.90;;;;;;1924982;74;20121;-71
2021/07/29 02:45:20;;;;;;;;;;;17.60;99.90;;;;;;1921563;73;20180;-71
2021/07/29 02:47:47;;;;;;;;;;;17.70;99.90;;;;;;1908740;74;20165;-71
2021/07/29 02:50:14;;;;;;;;;;;17.70;99.90;;;;;;1882014;74;20171;-71
2021/07/29 02:52:41;;;;;;;;;;;17.70;99.90;;;;;;1898442;74;20177;-71
2021/07/29 02:55:08;;;;;;;;;;;17.70;99.90;;;;;;1924735;74;20118;-71
2021/07/29 02:57:36;;;;;;;;;;;17.70;99.90;;;;;;1924337;73;20467;-71
2021/07/29 03:00:03;;;;;;;;;;;17.60;99.90;;;;;;1917357;73;20482;-71
2021/07/29 03:02:30;;;;;;;;;;;17.70;99.90;;;;;;1923377;73;20210;-71
2021/07/29 03:04:57;;;;;;;;;;;17.60;99.90;;;;;;1924425;73;20207;-71
2021/07/29 03:07:26;;;;;;;;;;;17.50;99.90;;;;;;1924373;74;20114;-71
2021/07/29 03:09:55;;;;;;;;;;;17.50;99.90;;;;;;1924671;73;20126;-71
2021/07/29 03:12:22;;;;;;;;;;;17.60;99.90;;;;;;1925033;73;20131;-71
2021/07/29 03:14:49;;;;;;;;;;;17.50;99.90;;;;;;1918923;73;20212;-71
2021/07/29 03:17:16;;;;;;;;;;;17.50;99.90;;;;;;1901139;74;20478;-71
2021/07/29 03:19:42;;;;;;;;;;;17.50;99.90;;;;;;1909141;74;20125;-71
2021/07/29 03:22:10;;;;;;;;;;;17.50;99.90;;;;;;1924388;74;20445;-71
2021/07/29 03:24:37;;;;;;;;;;;17.40;99.90;;;;;;1924111;73;21207;-71
2021/07/29 03:27:04;;;;;;;;;;;17.50;99.90;;;;;;1924641;73;20214;-71
2021/07/29 03:29:30;;;;;;;;;;;17.50;99.90;;;;;;1922295;73;20121;-71
2021/07/29 03:31:57;;;;;;;;;;;17.60;99.90;;;;;;1924247;74;20176;-71
2021/07/29 03:34:24;;;;;;;;;;;17.50;99.90;;;;;;1923772;73;20192;-71
2021/07/29 03:36:51;;;;;;;;;;;17.50;99.90;;;;;;1923877;73;20185;-71
2021/07/29 03:39:18;;;;;;;;;;;17.60;99.90;;;;;;1924018;73;20219;-71
2021/07/29 03:41:44;;;;;;;;;;;17.50;99.90;;;;;;1924525;73;20169;-71
2021/07/29 03:44:12;;;;;;;;;;;17.50;99.90;;;;;;1923462;74;20516;-71
2021/07/29 03:46:38;;;;;;;;;;;17.50;99.90;;;;;;1921112;74;20173;-71
2021/07/29 03:49:05;;;;;;;;;;;17.50;99.90;;;;;;1924307;73;20126;-71
2021/07/29 03:51:32;;;;;;;;;;;17.50;99.90;;;;;;1924495;73;20204;-71
2021/07/29 03:53:59;;;;;;;;;;;17.40;99.90;;;;;;1924101;73;20232;-71
2021/07/29 03:56:25;;;;;;;;;;;17.50;99.90;;;;;;1924055;73;20176;-71
2021/07/29 03:58:52;;;;;;;;;;;17.40;99.90;;;;;;1923748;74;20207;-71
2021/07/29 04:01:19;;;;;;;;;;;17.50;99.90;;;;;;1909317;73;20447;-71
2021/07/29 04:03:49;;;;;;;;;;;17.50;99.90;;;;;;1921682;73;20184;-71
2021/07/29 04:06:17;;;;;;;;;;;17.50;99.90;;;;;;1921674;73;20169;-71
2021/07/29 04:08:44;;;;;;;;;;;17.50;99.90;;;;;;1924770;73;20133;-71
2021/07/29 04:11:10;;;;;;;;;;;17.50;99.90;;;;;;1925451;73;20145;-71
2021/07/29 04:13:37;;;;;;;;;;;17.40;99.90;;;;;;1924936;73;20438;-71
2021/07/29 04:16:04;;;;;;;;;;;17.50;99.90;;;;;;1925347;73;20126;-71
2021/07/29 04:18:32;;;;;;;;;;;17.50;99.90;;;;;;1892961;74;20120;-70
2021/07/29 04:20:59;;;;;;;;;;;17.50;99.90;;;;;;1924606;74;20174;-70
2021/07/29 04:23:26;;;;;;;;;;;17.50;99.90;;;;;;1906418;73;20150;-71
2021/07/29 04:25:53;;;;;;;;;;;17.40;99.90;;;;;;1922683;73;20149;-71
2021/07/29 04:28:20;;;;;;;;;;;17.40;99.90;;;;;;1923668;74;20189;-71
2021/07/29 04:30:47;;;;;;;;;;;17.50;99.90;;;;;;1924802;73;20172;-71
2021/07/29 04:33:13;;;;;;;;;;;17.40;99.90;;;;;;1922998;74;20169;-71
2021/07/29 04:35:40;;;;;;;;;;;17.50;99.90;;;;;;1923029;73;20181;-71
2021/07/29 04:38:07;;;;;;;;;;;17.40;99.90;;;;;;1913995;74;20201;-71
2021/07/29 04:40:34;;;;;;;;;;;17.40;99.90;;;;;;1894238;73;20226;-71
2021/07/29 04:43:01;;;;;;;;;;;17.40;99.90;;;;;;1924651;74;20250;-71
2021/07/29 04:45:27;;;;;;;;;;;17.50;99.90;;;;;;1924009;74;20125;-71
2021/07/29 04:47:55;;;;;;;;;;;17.50;99.90;;;;;;1924381;73;20189;-71
2021/07/29 04:50:22;;;;;;;;;;;17.50;99.90;;;;;;1893184;74;20219;-71
2021/07/29 04:52:50;;;;;;;;;;;17.50;99.90;;;;;;1923662;73;20188;-72
2021/07/29 04:55:17;;;;;;;;;;;17.40;99.90;;;;;;1924672;74;20164;-72
2021/07/29 04:57:44;;;;;;;;;;;17.40;99.90;;;;;;1923367;73;20161;-72
2021/07/29 05:00:11;;;;;;;;;;;17.40;99.90;;;;;;1923802;73;20531;-73
2021/07/29 05:02:38;;;;;;;;;;;17.40;99.90;;;;;;1924648;73;20203;-72
2021/07/29 05:05:05;;;;;;;;;;;17.40;99.90;;;;;;1917551;73;20177;-70
2021/07/29 05:07:32;;;;;;;;;;;17.40;99.90;;;;;;1922841;74;20190;-73
2021/07/29 05:09:58;;;;;;;;;;;17.50;99.90;;;;;;1920549;73;20176;-73
2021/07/29 05:12:25;;;;;;;;;;;17.50;99.90;;;;;;1897645;74;20173;-73
2021/07/29 05:14:56;;;;;;;;;;;17.50;99.90;;;;;;1924075;73;20155;-73
2021/07/29 05:17:20;;;;;;;;;;;17.50;99.90;;;;;;1923525;73;20203;-73
2021/07/29 05:19:47;;;;;;;;;;;17.50;99.90;;;;;;1922179;73;20188;-74
2021/07/29 05:22:15;;;;;;;;;;;17.50;99.90;;;;;;1911928;73;20192;-74
2021/07/29 05:24:42;;;;;;;;;;;17.60;99.90;;;;;;1907361;73;20231;-74
2021/07/29 05:27:08;;;;;;;;;;;17.50;99.90;;;;;;1922587;73;20808;-74
2021/07/29 05:29:35;;;;;;;;;;;17.60;99.90;;;;;;1922908;73;20188;-74
2021/07/29 05:32:02;;;;;;;;;;;17.60;99.90;;;;;;1917427;73;20462;-74
2021/07/29 05:34:29;;;;;;;;;;;17.60;99.90;;;;;;1922183;73;20207;-74
2021/07/29 05:36:56;;;;;;;;;;;17.50;99.90;;;;;;1922940;73;20297;-74
2021/07/29 05:39:23;;;;;;;;;;;17.60;99.90;;;;;;1924084;73;20145;-74
2021/07/29 05:41:49;;;;;;;;;;;17.60;99.90;;;;;;1920407;73;20165;-74
2021/07/29 05:44:16;;;;;;;;;;;17.60;99.90;;;;;;1917087;74;20228;-74
2021/07/29 05:46:43;;;;;;;;;;;17.60;99.90;;;;;;1923646;73;20193;-75
2021/07/29 05:49:10;;;;;;;;;;;17.60;99.90;;;;;;1922715;73;20178;-75
2021/07/29 05:51:36;;;;;;;;;;;17.70;99.90;;;;;;1921636;74;20466;-75
2021/07/29 05:54:03;;;;;;;;;;;17.60;99.90;;;;;;1919562;73;20198;-75
2021/07/29 05:56:30;;;;;;;;;;;17.60;99.90;;;;;;1915432;73;20552;-75
2021/07/29 05:58:57;;;;;;;;;;;17.60;99.90;;;;;;1923290;73;20176;-74
2021/07/29 06:01:24;;;;;;;;;;;17.60;99.90;;;;;;1910937;73;20463;-74
2021/07/29 06:03:50;;;;;;;;;;;17.70;99.90;;;;;;1905007;74;20160;-74
2021/07/29 06:06:17;;;;;;;;;;;17.70;99.90;;;;;;1923198;74;20466;-76
2021/07/29 06:08:46;;;;;;;;;;;17.80;99.90;;;;;;1922546;73;20188;-76
2021/07/29 06:11:12;;;;;;;;;;;17.80;99.90;;;;;;1908175;74;20509;-76
2021/07/29 06:13:39;;;;;;;;;;;17.80;99.90;;;;;;1922888;73;20208;-77
2021/07/29 06:16:09;;;;;;;;;;;17.80;99.90;;;;;;1922754;73;20180;-77
2021/07/29 06:18:37;;;;;;;;;;;17.80;99.90;;;;;;1918720;73;20126;-76
2021/07/29 06:21:03;;;;;;;;;;;17.80;99.90;;;;;;1917950;74;20192;-77
2021/07/29 06:23:30;;;;;;;;;;;17.80;99.90;;;;;;1920329;74;20185;-76
2021/07/29 06:25:57;;;;;;;;;;;17.90;99.90;;;;;;1924322;74;20125;-72
2021/07/29 06:28:30;;;;;;;;;;;17.90;99.90;;;;;;1923846;74;20176;-74
2021/07/29 06:30:52;;;;;;;;;;;17.90;99.90;;;;;;1905094;73;20508;-74
2021/07/29 06:33:19;;;;;;;;;;;18.00;99.90;;;;;;1901977;73;20215;-72
2021/07/29 06:35:46;;;;;;;;;;;17.90;99.90;;;;;;1924175;74;20228;-73
2021/07/29 06:38:13;;;;;;;;;;;18.00;99.90;;;;;;1898867;74;20447;-73
2021/07/29 06:40:40;;;;;;;;;;;17.90;99.90;;;;;;1902990;73;20257;-74
2021/07/29 06:43:06;;;;;;;;;;;17.90;99.90;;;;;;1920559;73;20498;-73
2021/07/29 06:45:33;;;;;;;;;;;17.90;99.90;;;;;;1922915;73;20192;-73
2021/07/29 06:48:00;;;;;;;;;;;17.90;99.90;;;;;;1919036;73;20490;-73
2021/07/29 06:50:27;;;;;;;;;;;18.00;99.90;;;;;;1922743;73;20176;-74
2021/07/29 06:52:53;;;;;;;;;;;18.00;99.90;;;;;;1921693;73;20235;-74
2021/07/29 06:55:20;;;;;;;;;;;18.00;99.90;;;;;;1924066;73;20271;-74
2021/07/29 06:57:47;;;;;;;;;;;18.10;99.90;;;;;;1916736;73;20154;-74
2021/07/29 07:00:14;;;;;;;;;;;18.10;99.90;;;;;;1921675;73;20244;-74
2021/07/29 07:02:44;;;;;;;;;;;18.20;99.90;;;;;;1946933;71;20185;-72
2021/07/29 07:05:11;;;;;;;;;;;18.20;99.90;;;;;;1967711;71;20165;-69
2021/07/29 07:07:37;;;;;;;;;;;18.10;99.90;;;;;;1973115;72;20186;-69
2021/07/29 07:10:04;;;;;;;;;;;18.20;99.90;;;;;;1970784;72;20177;-70
2021/07/29 07:12:31;;;;;;;;;;;18.10;99.90;;;;;;1959705;72;20249;-70
2021/07/29 07:14:58;;;;;;;;;;;18.10;99.90;;;;;;1947851;73;20294;-70
2021/07/29 07:17:25;;;;;;;;;;;18.10;99.90;;;;;;1948138;73;20169;-70
2021/07/29 07:19:56;;;;;;;;;;;18.10;99.90;;;;;;1948201;73;20388;-71
2021/07/29 07:22:20;;;;;;;;;;;18.10;99.90;;;;;;1946818;73;20165;-72
2021/07/29 07:24:47;;;;;;;;;;;18.20;99.90;;;;;;1947850;73;20173;-69
2021/07/29 07:27:14;;;;;;;;;;;18.20;99.90;;;;;;1949066;73;20180;-69
2021/07/29 07:29:40;;;;;;;;;;;18.20;99.90;;;;;;1947973;73;20176;-71
2021/07/29 07:32:07;;;;;;;;;;;18.30;99.90;;;;;;1946098;73;20190;-70
2021/07/29 07:34:34;;;;;;;;;;;18.30;99.90;;;;;;1948489;73;20169;-70
2021/07/29 07:37:01;;;;;;;;;;;18.30;99.90;;;;;;1948053;73;20204;-70
2021/07/29 07:39:28;;;;;;;;;;;18.30;99.90;;;;;;1948000;73;20220;-71
2021/07/29 07:41:57;;;;;;;;;;;18.30;99.90;;;;;;1946261;73;20150;-70
2021/07/29 07:44:24;;;;;;;;;;;18.40;99.90;;;;;;1946603;73;20457;-69
2021/07/29 07:46:51;;;;;;;;;;;18.40;99.90;;;;;;1951550;73;20285;-70
2021/07/29 07:49:18;;;;;;;;;;;18.40;99.90;;;;;;1952673;73;20516;-70
2021/07/29 07:51:45;;;;;;;;;;;18.50;99.90;;;;;;1941843;73;20152;-70
2021/07/29 07:54:12;;;;;;;;;;;18.50;99.90;;;;;;1945179;73;20834;-69
2021/07/29 07:56:47;;;;;;;;;;;18.50;99.90;;;;;;1942704;73;20150;-69
2021/07/29 07:59:30;;;;;;;;;;;18.50;99.90;;;;;;1938657;73;20122;-70
2021/07/29 08:01:57;;;;;;;;;;;18.50;99.90;;;;;;1953430;73;20615;-72
2021/07/29 08:04:24;;;;;;;;;;;18.50;99.90;;;;;;1958849;73;20151;-72
2021/07/29 08:06:51;;;;;;;;;;;18.60;99.90;;;;;;1939880;73;20134;-72
2021/07/29 08:09:18;;;;;;;;;;;18.60;99.90;;;;;;1952317;73;20947;-72
2021/07/29 08:11:44;;;;;;;;;;;18.70;99.90;;;;;;1931740;73;20186;-73
2021/07/29 08:14:11;;;;;;;;;;;18.80;99.90;;;;;;1921822;73;20467;-73
2021/07/29 08:16:38;;;;;;;;;;;18.80;99.90;;;;;;1912046;73;20186;-72
2021/07/29 08:19:05;;;;;;;;;;;18.80;99.90;;;;;;1924535;73;20174;-71
2021/07/29 08:21:33;;;;;;;;;;;18.70;99.90;;;;;;1921623;74;20196;-72
2021/07/29 08:23:59;;;;;;;;;;;18.70;99.90;;;;;;1875943;76;20187;-72
2021/07/29 08:26:26;;;;;;;;;;;18.70;99.90;;;;;;1830176;77;20209;-73
2021/07/29 08:28:53;;;;;;;;;;;18.70;99.90;;;;;;1847142;76;20194;-75
2021/07/29 08:31:20;;;;;;;;;;;18.70;99.90;;;;;;1865614;76;20169;-75
2021/07/29 08:33:48;;;;;;;;;;;18.70;99.90;;;;;;1852190;77;20193;-74
2021/07/29 08:36:15;;;;;;;;;;;18.80;99.90;;;;;;1815089;78;20224;-74
2021/07/29 08:38:43;;;;;;;;;;;18.90;99.90;;;;;;1822078;76;20464;-74
2021/07/29 08:41:10;;;;;;;;;;;19.00;99.90;;;;;;1823515;78;20430;-74
2021/07/29 08:43:37;;;;;;;;;;;19.10;99.90;;;;;;1834140;78;20175;-74
2021/07/29 08:46:06;;;;;;;;;;;19.10;99.90;;;;;;1844331;77;20216;-75
2021/07/29 08:48:33;;;;;;;;;;;19.20;99.90;;;;;;1848093;76;20179;-74
2021/07/29 08:51:00;;;;;;;;;;;19.20;99.90;;;;;;1838642;76;20257;-74
2021/07/29 08:53:27;;;;;;;;;;;19.20;99.90;;;;;;1838494;76;20244;-74
2021/07/29 08:55:54;;;;;;;;;;;19.30;99.90;;;;;;1853097;76;20191;-73
2021/07/29 08:58:21;;;;;;;;;;;19.30;99.90;;;;;;1827514;77;20213;-73
2021/07/29 09:01:05;;;;;;;;;;;19.40;99.90;;;;;;1840998;76;20233;-73
2021/07/29 09:03:34;;;;;;;;;;;19.50;99.90;;;;;;1855169;76;20214;-74
2021/07/29 09:06:01;;;;;;;;;;;19.50;99.90;;;;;;1854696;76;20304;-73
2021/07/29 09:08:29;;;;;;;;;;;19.40;99.90;;;;;;1859055;76;20236;-74
2021/07/29 09:10:56;;;;;;;;;;;19.30;99.90;;;;;;1859809;76;20162;-73
2021/07/29 09:13:23;;;;;;;;;;;19.40;99.90;;;;;;1855910;76;20226;-74
2021/07/29 09:15:51;;;;;;;;;;;19.40;99.90;;;;;;1858617;76;20174;-73
2021/07/29 09:18:18;;;;;;;;;;;19.50;99.90;;;;;;1852044;76;20273;-72
2021/07/29 09:20:45;;;;;;;;;;;19.60;99.90;;;;;;1855788;76;20708;-73
2021/07/29 09:23:13;;;;;;;;;;;19.50;99.90;;;;;;1847534;76;20612;-73
2021/07/29 09:25:40;;;;;;;;;;;19.50;99.90;;;;;;1859983;76;20262;-72
2021/07/29 09:28:07;;;;;;;;;;;19.70;99.90;;;;;;1857524;76;20186;-72
2021/07/29 09:30:34;;;;;;;;;;;19.70;99.90;;;;;;1855917;76;20665;-73
2021/07/29 09:33:05;;;;;;;;;;;19.80;99.90;;;;;;1858970;76;20514;-73
2021/07/29 09:35:33;;;;;;;;;;;19.90;99.90;;;;;;1857585;76;20467;-72
2021/07/29 09:38:00;;;;;;;;;;;20.00;99.90;;;;;;1858142;76;20455;-72
2021/07/29 09:40:27;;;;;;;;;;;19.90;99.90;;;;;;1855809;76;20539;-72
2021/07/29 09:43:11;;;;;;;;;;;19.90;99.90;;;;;;1858916;76;20218;-71
2021/07/29 09:45:39;;;;;;;;;;;19.90;99.90;;;;;;1859487;76;20482;-72
2021/07/29 09:48:06;;;;;;;;;;;20.00;99.90;;;;;;1858143;76;20187;-72
2021/07/29 09:50:34;;;;;;;;;;;20.20;99.90;;;;;;1857858;76;20124;-76
2021/07/29 09:53:01;;;;;;;;;;;20.20;99.90;;;;;;1855984;76;20207;-70
2021/07/29 09:55:29;;;;;;;;;;;20.30;99.90;;;;;;1858017;76;20162;-71
2021/07/29 09:57:56;;;;;;;;;;;20.40;99.90;;;;;;1859516;76;20188;-70
2021/07/29 10:00:23;;;;;;;;;;;20.50;99.90;;;;;;1860729;76;20147;-71
2021/07/29 10:02:51;;;;;;;;;;;20.60;99.90;;;;;;1859900;76;20159;-71
2021/07/29 10:05:19;;;;;;;;;;;20.60;99.90;;;;;;1862252;76;20167;-70
2021/07/29 10:07:48;;;;;;;;;;;20.70;99.90;;;;;;1858477;76;20562;-70
2021/07/29 10:10:25;;;;;;;;;;;20.80;99.90;;;;;;1851920;76;20174;-71
2021/07/29 10:12:48;;;;;;;;;;;20.70;99.90;;;;;;1858638;76;20201;-72
2021/07/29 10:15:16;;;;;;;;;;;20.50;99.90;;;;;;1858776;76;20195;-72
2021/07/29 10:17:46;;;;;;;;;;;20.50;99.90;;;;;;1830708;76;20178;-73
2021/07/29 10:20:20;;;;;;;;;;;20.70;99.90;;;;;;1855456;76;20182;-71
2021/07/29 10:22:49;;;;;;;;;;;20.70;99.90;;;;;;1858008;76;20222;-71
2021/07/29 10:25:16;;;;;;;;;;;20.50;99.90;;;;;;1854776;76;20246;-71
2021/07/29 10:28:01;;;;;;;;;;;20.40;99.90;;;;;;1857096;76;20216;-72
2021/07/29 10:30:30;;;;;;;;;;;20.40;99.90;;;;;;1859355;76;20295;-72
2021/07/29 10:32:57;;;;;;;;;;;20.50;99.90;;;;;;1857883;76;20202;-72
2021/07/29 10:35:28;;;;;;;;;;;20.40;99.90;;;;;;1857155;76;20184;-71
2021/07/29 10:37:55;;;;;;;;;;;20.30;99.90;;;;;;1863734;76;20443;-72
2021/07/29 10:40:35;;;;;;;;;;;20.30;99.90;;;;;;1852899;76;20286;-73
2021/07/29 10:43:07;;;;;;;;;;;20.50;99.90;;;;;;1854280;76;20175;-74
2021/07/29 10:45:41;;;;;;;;;;;20.50;99.90;;;;;;1854434;76;20159;-73
2021/07/29 10:48:11;;;;;;;;;;;20.70;99.90;;;;;;1834235;76;20279;-72
2021/07/29 10:50:39;;;;;;;;;;;20.80;99.90;;;;;;1891440;76;20199;-72
2021/07/29 10:53:06;;;;;;;;;;;20.70;99.90;;;;;;1893179;76;20551;-73
2021/07/29 10:55:35;;;;;;;;;;;20.70;99.90;;;;;;1877430;76;20198;-72
2021/07/29 10:58:03;;;;;;;;;;;20.60;99.90;;;;;;1867456;76;20116;-72
2021/07/29 11:00:30;;;;;;;;;;;20.60;99.90;;;;;;1895561;75;20469;-73
2021/07/29 11:02:58;;;;;;;;;;;20.70;99.90;;;;;;1888519;75;20276;-72
2021/07/29 11:05:30;;;;;;;;;;;20.80;99.90;;;;;;1864342;76;20593;-72
2021/07/29 11:07:55;;;;;;;;;;;20.70;99.90;;;;;;1864521;76;20298;-71
2021/07/29 11:10:23;;;;;;;;;;;20.50;99.90;;;;;;1857853;76;20128;-71
2021/07/29 11:12:50;;;;;;;;;;;20.40;99.90;;;;;;1861717;76;20163;-71
2021/07/29 11:15:17;;;;;;;;;;;20.20;99.90;;;;;;1864591;76;20124;-72
2021/07/29 11:17:44;;;;;;;;;;;19.60;99.90;;;;;;1864622;77;20165;-71
2021/07/29 11:20:10;;;;;;;;;;;19.30;99.90;;;;;;1894196;76;20118;-71
2021/07/29 11:22:44;;;;;;;;;;;19.10;99.90;;;;;;1896142;76;20173;-71
2021/07/29 11:25:11;;;;;;;;;;;19.10;99.90;;;;;;1882266;75;20475;-72
2021/07/29 11:27:38;;;;;;;;;;;18.80;99.90;;;;;;1864164;77;20131;-71
2021/07/29 11:30:05;;;;;;;;;;;18.70;99.90;;;;;;1890861;76;20280;-72
2021/07/29 11:32:37;;;;;;;;;;;18.80;99.90;;;;;;1887327;76;20447;-72
2021/07/29 11:35:04;;;;;;;;;;;18.80;99.90;;;;;;1865130;76;20173;-72
2021/07/29 11:37:35;;;;;;;;;;;18.70;99.90;;;;;;1864243;76;20171;-71
2021/07/29 11:40:02;;;;;;;;;;;18.70;99.90;;;;;;1889894;76;20169;-72
2021/07/29 11:42:32;;;;;;;;;;;18.70;99.90;;;;;;1895762;75;20188;-71
2021/07/29 11:44:59;;;;;;;;;;;18.70;99.90;;;;;;1895508;76;20157;-72
2021/07/29 11:47:27;;;;;;;;;;;18.60;99.90;;;;;;1896756;76;20161;-71
2021/07/29 11:49:54;;;;;;;;;;;18.80;99.90;;;;;;1893828;76;20165;-72
2021/07/29 11:52:21;;;;;;;;;;;19.00;99.90;;;;;;1871441;75;20132;-71
2021/07/29 11:54:48;;;;;;;;;;;19.30;99.90;;;;;;1873660;76;20210;-71
2021/07/29 11:57:16;;;;;;;;;;;19.40;99.90;;;;;;1863887;76;20163;-71
2021/07/29 11:59:46;;;;;;;;;;;19.70;99.90;;;;;;1883364;76;20165;-71
2021/07/29 12:02:12;;;;;;;;;;;19.90;99.90;;;;;;1871864;75;20192;-72
2021/07/29 12:04:40;;;;;;;;;;;20.00;99.90;;;;;;1863886;77;20289;-71
2021/07/29 12:07:07;;;;;;;;;;;20.10;99.90;;;;;;1864070;77;20464;-72
2021/07/29 12:09:35;;;;;;;;;;;20.00;99.90;;;;;;1882427;76;20468;-72
2021/07/29 12:12:02;;;;;;;;;;;19.90;99.90;;;;;;1895687;76;20437;-71
2021/07/29 12:14:29;;;;;;;;;;;19.70;99.90;;;;;;1889118;75;20214;-71
2021/07/29 12:16:56;;;;;;;;;;;19.60;99.90;;;;;;1879361;76;20199;-72
2021/07/29 12:19:23;;;;;;;;;;;19.40;99.90;;;;;;1859739;76;20206;-71
2021/07/29 12:21:51;;;;;;;;;;;19.20;99.90;;;;;;1861580;76;20214;-71
2021/07/29 12:24:18;;;;;;;;;;;19.10;99.90;;;;;;1865284;76;20240;-71
2021/07/29 12:27:03;;;;;;;;;;;19.30;99.90;;;;;;1858126;76;20191;-71
2021/07/29 12:29:40;;;;;;;;;;;19.40;99.90;;;;;;1870505;76;20168;-71
2021/07/29 12:32:08;;;;;;;;;;;19.50;99.90;;;;;;1868919;76;20259;-70
2021/07/29 12:34:35;;;;;;;;;;;19.80;99.90;;;;;;1863542;75;20247;-70
2021/07/29 12:37:02;;;;;;;;;;;20.00;99.90;;;;;;1872336;76;20214;-70
2021/07/29 12:39:34;;;;;;;;;;;20.20;99.90;;;;;;1862687;76;20183;-71
2021/07/29 12:42:03;;;;;;;;;;;20.30;99.90;;;;;;1876846;76;20249;-71
2021/07/29 12:44:30;;;;;;;;;;;20.30;99.90;;;;;;1861215;76;20163;-71
2021/07/29 12:47:04;;;;;;;;;;;20.10;99.90;;;;;;1874641;76;20421;-70
2021/07/29 12:49:32;;;;;;;;;;;20.00;99.90;;;;;;1830285;76;20185;-70
2021/07/29 12:51:59;;;;;;;;;;;19.90;99.90;;;;;;1851693;76;20186;-71
2021/07/29 12:54:26;;;;;;;;;;;19.70;99.90;;;;;;1861361;76;20198;-70
2021/07/29 12:57:03;;;;;;;;;;;19.60;99.90;;;;;;1875336;76;20202;-71
2021/07/29 12:59:30;;;;;;;;;;;19.60;99.90;;;;;;1870801;76;20250;-72
2021/07/29 13:01:57;;;;;;;;;;;19.70;99.90;;;;;;1878135;75;20207;-72
2021/07/29 13:04:24;;;;;;;;;;;19.70;99.90;;;;;;1866382;76;20215;-72
2021/07/29 13:06:51;;;;;;;;;;;19.90;99.90;;;;;;1881282;76;20181;-72
2021/07/29 13:09:17;;;;;;;;;;;20.10;99.90;;;;;;1849149;76;20412;-72
2021/07/29 13:11:44;;;;;;;;;;;20.40;99.90;;;;;;1856568;76;20161;-73
2021/07/29 13:14:11;;;;;;;;;;;20.50;99.90;;;;;;1876087;76;20215;-72
2021/07/29 13:16:38;;;;;;;;;;;20.60;99.90;;;;;;1872053;76;20405;-72
2021/07/29 13:19:05;;;;;;;;;;;20.80;99.90;;;;;;1865290;76;20222;-73
2021/07/29 13:21:31;;;;;;;;;;;21.10;99.90;;;;;;1845652;76;20410;-73
2021/07/29 13:23:58;;;;;;;;;;;21.30;99.90;;;;;;1856583;76;20139;-74
2021/07/29 13:26:25;;;;;;;;;;;21.40;99.90;;;;;;1855721;76;20220;-73
2021/07/29 13:28:52;;;;;;;;;;;21.50;99.90;;;;;;1858989;76;20133;-73
2021/07/29 13:31:19;;;;;;;;;;;21.60;99.90;;;;;;1861322;76;20199;-72
2021/07/29 13:33:46;;;;;;;;;;;21.70;99.90;;;;;;1849868;76;20273;-72
2021/07/29 13:36:12;;;;;;;;;;;21.80;99.90;;;;;;1851441;76;20158;-71
2021/07/29 13:38:39;;;;;;;;;;;21.90;99.90;;;;;;1854268;76;20181;-72
2021/07/29 13:41:06;;;;;;;;;;;22.10;99.90;;;;;;1855395;76;20845;-72
2021/07/29 13:43:33;;;;;;;;;;;22.00;98.70;;;;;;1859481;76;20297;-70
2021/07/29 13:46:00;;;;;;;;;;;22.10;99.90;;;;;;1854586;76;20235;-71
2021/07/29 13:48:26;;;;;;;;;;;22.10;99.90;;;;;;1857390;76;20230;-71
2021/07/29 13:50:53;;;;;;;;;;;21.90;99.90;;;;;;1857372;76;20222;-71
2021/07/29 13:53:22;;;;;;;;;;;22.00;99.90;;;;;;1856016;76;20174;-71
2021/07/29 13:55:48;;;;;;;;;;;22.10;99.90;;;;;;1851957;76;20526;-72
2021/07/29 13:58:15;;;;;;;;;;;22.20;99.90;;;;;;1850257;76;20277;-72
2021/07/29 14:00:42;;;;;;;;;;;22.10;99.90;;;;;;1881721;73;21203;-73
2021/07/29 14:03:10;;;;;;;;;;;21.80;99.90;;;;;;1910015;73;20166;-74
2021/07/29 14:05:41;;;;;;;;;;;21.70;99.90;;;;;;1882190;75;20293;-74
2021/07/29 14:08:06;;;;;;;;;;;21.50;99.90;;;;;;1877225;75;20137;-75
2021/07/29 14:10:32;;;;;;;;;;;21.30;99.90;;;;;;1873803;75;20499;-74
2021/07/29 14:13:00;;;;;;;;;;;21.40;99.90;;;;;;1876774;76;20231;-73
2021/07/29 14:15:26;;;;;;;;;;;21.30;99.90;;;;;;1875948;76;20379;-74
2021/07/29 14:17:59;;;;;;;;;;;21.40;99.90;;;;;;1874533;76;20220;-73
2021/07/29 14:20:32;;;;;;;;;;;21.50;99.90;;;;;;1875988;76;20202;-74